FMEP/ZSE METAR and TAF weather

Enter ICAO airport designator
Station Type Date Time Source
FMEP METAR 2022/01/27 23:30 UTC NOAA

FMEP 272330Z AUTO 07004KT 040V110 //// // BKN080 23/18 Q1010


Station Type Date Time Source
FMEP Decoded METAR 2022/01/27 23:30 UTC NOAA

Saint-Pierre, Reunion (FMEP) 21-20S 055-29E 53M
Jan 27, 2022 - 06:30 PM EST / 2022.01.27 2330 UTC
Wind: from the ENE (070 degrees) at 5 MPH (4 KT) (direction variable):0
Sky conditions: mostly cloudy
Temperature: 73 F (23 C)
Dew Point: 64 F (18 C)
Relative Humidity: 73%
Pressure (altimeter): 29.83 in. Hg (1010 hPa)
ob: FMEP 272330Z AUTO 07004KT 040V110 //// // BKN080 23/18 Q1010
cycle: 23

Station Type Date Time Source
FMEP TAF 2020/08/08 06:00 UTC NOAA

TAF FMEP 080500Z 0806/0815 27010KT 9999 FEW030

Example: see airport list